sensor_id;sensor_type;location;lat;lon;timestamp;pressure;altitude;pressure_sealevel;temperature
48003;BMP280;33768;48.578;11.574;2023-06-10T00:02:11;96130.00;;;16.20
48003;BMP280;33768;48.578;11.574;2023-06-10T00:05:15;96132.44;;;16.16
48003;BMP280;33768;48.578;11.574;2023-06-10T00:08:20;96137.47;;;16.10
48003;BMP280;33768;48.578;11.574;2023-06-10T00:11:24;96130.00;;;16.03
48003;BMP280;33768;48.578;11.574;2023-06-10T00:14:29;96130.25;;;15.98
48003;BMP280;33768;48.578;11.574;2023-06-10T00:17:33;96138.91;;;15.95
48003;BMP280;33768;48.578;11.574;2023-06-10T00:20:37;96129.75;;;15.92
48003;BMP280;33768;48.578;11.574;2023-06-10T00:23:41;96127.25;;;15.87
48003;BMP280;33768;48.578;11.574;2023-06-10T00:26:45;96126.19;;;15.82
48003;BMP280;33768;48.578;11.574;2023-06-10T00:29:50;96129.19;;;15.77
48003;BMP280;33768;48.578;11.574;2023-06-10T00:32:54;96137.84;;;15.73
48003;BMP280;33768;48.578;11.574;2023-06-10T00:35:58;96130.72;;;15.70
48003;BMP280;33768;48.578;11.574;2023-06-10T00:39:03;96128.22;;;15.65
48003;BMP280;33768;48.578;11.574;2023-06-10T00:42:08;96123.09;;;15.62
48003;BMP280;33768;48.578;11.574;2023-06-10T00:45:14;96125.19;;;15.54
48003;BMP280;33768;48.578;11.574;2023-06-10T00:48:18;96132.78;;;15.46
48003;BMP280;33768;48.578;11.574;2023-06-10T00:51:23;96132.63;;;15.44
48003;BMP280;33768;48.578;11.574;2023-06-10T00:54:27;96122.75;;;15.41
48003;BMP280;33768;48.578;11.574;2023-06-10T00:57:31;96133.81;;;15.33
48003;BMP280;33768;48.578;11.574;2023-06-10T01:00:36;96131.72;;;15.25
48003;BMP280;33768;48.578;11.574;2023-06-10T01:03:41;96130.47;;;15.18
48003;BMP280;33768;48.578;11.574;2023-06-10T01:07:00;96134.88;;;15.14
48003;BMP280;33768;48.578;11.574;2023-06-10T01:10:12;96129.38;;;15.14
48003;BMP280;33768;48.578;11.574;2023-06-10T01:13:17;96127.94;;;15.13
48003;BMP280;33768;48.578;11.574;2023-06-10T01:16:23;96134.75;;;15.12
48003;BMP280;33768;48.578;11.574;2023-06-10T01:19:27;96132.91;;;15.07
48003;BMP280;33768;48.578;11.574;2023-06-10T01:22:33;96137.13;;;15.08
48003;BMP280;33768;48.578;11.574;2023-06-10T01:25:43;96134.00;;;15.04
48003;BMP280;33768;48.578;11.574;2023-06-10T01:28:52;96128.03;;;14.98
48003;BMP280;33768;48.578;11.574;2023-06-10T01:32:06;96125.69;;;14.95
48003;BMP280;33768;48.578;11.574;2023-06-10T01:35:13;96138.00;;;14.86
48003;BMP280;33768;48.578;11.574;2023-06-10T01:38:19;96131.66;;;14.76
48003;BMP280;33768;48.578;11.574;2023-06-10T01:41:24;96134.28;;;14.67
48003;BMP280;33768;48.578;11.574;2023-06-10T01:44:29;96127.94;;;14.57
48003;BMP280;33768;48.578;11.574;2023-06-10T01:47:34;96129.41;;;14.51
48003;BMP280;33768;48.578;11.574;2023-06-10T01:50:38;96132.00;;;14.49
48003;BMP280;33768;48.578;11.574;2023-06-10T01:53:42;96132.00;;;14.49
48003;BMP280;33768;48.578;11.574;2023-06-10T01:56:46;96137.88;;;14.45
48003;BMP280;33768;48.578;11.574;2023-06-10T01:59:51;96140.13;;;14.32
48003;BMP280;33768;48.578;11.574;2023-06-10T02:02:54;96138.31;;;14.35
48003;BMP280;33768;48.578;11.574;2023-06-10T02:05:59;96144.50;;;14.35
48003;BMP280;33768;48.578;11.574;2023-06-10T02:09:04;96139.03;;;14.35
48003;BMP280;33768;48.578;11.574;2023-06-10T02:12:08;96138.34;;;14.27
48003;BMP280;33768;48.578;11.574;2023-06-10T02:15:14;96140.72;;;14.23
48003;BMP280;33768;48.578;11.574;2023-06-10T02:18:18;96135.47;;;14.10
48003;BMP280;33768;48.578;11.574;2023-06-10T02:21:24;96136.78;;;14.02
48003;BMP280;33768;48.578;11.574;2023-06-10T02:24:28;96143.38;;;13.92
48003;BMP280;33768;48.578;11.574;2023-06-10T02:27:32;96143.94;;;13.83
48003;BMP280;33768;48.578;11.574;2023-06-10T02:30:41;96154.91;;;13.75
48003;BMP280;33768;48.578;11.574;2023-06-10T02:33:46;96147.59;;;13.78
48003;BMP280;33768;48.578;11.574;2023-06-10T02:36:50;96145.94;;;13.82
48003;BMP280;33768;48.578;11.574;2023-06-10T02:39:57;96144.13;;;13.85
48003;BMP280;33768;48.578;11.574;2023-06-10T02:43:02;96147.03;;;13.87
48003;BMP280;33768;48.578;11.574;2023-06-10T02:46:06;96162.78;;;13.86
48003;BMP280;33768;48.578;11.574;2023-06-10T02:49:11;96159.84;;;13.84
48003;BMP280;33768;48.578;11.574;2023-06-10T02:52:16;96155.28;;;13.87
48003;BMP280;33768;48.578;11.574;2023-06-10T02:55:21;96163.13;;;13.90
48003;BMP280;33768;48.578;11.574;2023-06-10T02:58:31;96163.69;;;13.89
48003;BMP280;33768;48.578;11.574;2023-06-10T03:01:36;96164.78;;;13.86
48003;BMP280;33768;48.578;11.574;2023-06-10T03:04:45;96166.06;;;13.85
48003;BMP280;33768;48.578;11.574;2023-06-10T03:07:53;96156.38;;;13.84
48003;BMP280;33768;48.578;11.574;2023-06-10T03:10:58;96161.88;;;13.84
48003;BMP280;33768;48.578;11.574;2023-06-10T03:14:02;96160.38;;;13.83
48003;BMP280;33768;48.578;11.574;2023-06-10T03:17:08;96166.06;;;13.77
48003;BMP280;33768;48.578;11.574;2023-06-10T03:20:13;96159.69;;;13.68
48003;BMP280;33768;48.578;11.574;2023-06-10T03:23:20;96168.13;;;13.62
48003;BMP280;33768;48.578;11.574;2023-06-10T03:26:26;96166.66;;;13.61
48003;BMP280;33768;48.578;11.574;2023-06-10T03:29:31;96167.00;;;13.58
48003;BMP280;33768;48.578;11.574;2023-06-10T03:32:36;96177.81;;;13.56
48003;BMP280;33768;48.578;11.574;2023-06-10T03:35:40;96173.78;;;13.49
48003;BMP280;33768;48.578;11.574;2023-06-10T03:38:45;96179.28;;;13.49
48003;BMP280;33768;48.578;11.574;2023-06-10T03:41:50;96176.00;;;13.51
48003;BMP280;33768;48.578;11.574;2023-06-10T03:44:55;96167.03;;;13.50
48003;BMP280;33768;48.578;11.574;2023-06-10T03:48:01;96182.75;;;13.50
48003;BMP280;33768;48.578;11.574;2023-06-10T03:51:12;96182.03;;;13.49
48003;BMP280;33768;48.578;11.574;2023-06-10T03:54:16;96184.38;;;13.53
48003;BMP280;33768;48.578;11.574;2023-06-10T03:57:20;96177.63;;;13.54
48003;BMP280;33768;48.578;11.574;2023-06-10T04:00:24;96188.22;;;13.65
48003;BMP280;33768;48.578;11.574;2023-06-10T04:03:29;96183.09;;;13.69
48003;BMP280;33768;48.578;11.574;2023-06-10T04:06:33;96190.78;;;13.70
48003;BMP280;33768;48.578;11.574;2023-06-10T04:09:37;96187.47;;;13.79
48003;BMP280;33768;48.578;11.574;2023-06-10T04:12:41;96188.00;;;13.85
48003;BMP280;33768;48.578;11.574;2023-06-10T04:15:46;96192.56;;;13.90
48003;BMP280;33768;48.578;11.574;2023-06-10T04:18:54;96186.16;;;13.95
48003;BMP280;33768;48.578;11.574;2023-06-10T04:22:00;96192.38;;;14.03
48003;BMP280;33768;48.578;11.574;2023-06-10T04:25:05;96188.53;;;14.06
48003;BMP280;33768;48.578;11.574;2023-06-10T04:28:09;96192.72;;;14.14
48003;BMP280;33768;48.578;11.574;2023-06-10T04:31:14;96200.94;;;14.21
48003;BMP280;33768;48.578;11.574;2023-06-10T04:34:20;96194.84;;;14.30
48003;BMP280;33768;48.578;11.574;2023-06-10T04:37:24;96199.59;;;14.37
48003;BMP280;33768;48.578;11.574;2023-06-10T04:40:28;96199.22;;;14.40
48003;BMP280;33768;48.578;11.574;2023-06-10T04:43:32;96194.09;;;14.44
48003;BMP280;33768;48.578;11.574;2023-06-10T04:46:38;96193.50;;;14.46
48003;BMP280;33768;48.578;11.574;2023-06-10T04:49:42;96193.16;;;14.49
48003;BMP280;33768;48.578;11.574;2023-06-10T04:52:47;96197.84;;;14.56
48003;BMP280;33768;48.578;11.574;2023-06-10T04:55:51;96202.78;;;14.65
48003;BMP280;33768;48.578;11.574;2023-06-10T04:58:59;96204.75;;;14.72
48003;BMP280;33768;48.578;11.574;2023-06-10T05:02:06;96208.00;;;14.78
48003;BMP280;33768;48.578;11.574;2023-06-10T05:05:10;96210.31;;;14.89
48003;BMP280;33768;48.578;11.574;2023-06-10T05:08:15;96207.91;;;15.00
48003;BMP280;33768;48.578;11.574;2023-06-10T05:11:19;96215.91;;;15.13
48003;BMP280;33768;48.578;11.574;2023-06-10T05:14:24;96213.16;;;15.37
48003;BMP280;33768;48.578;11.574;2023-06-10T05:17:28;96217.28;;;15.69
48003;BMP280;33768;48.578;11.574;2023-06-10T05:20:32;96211.09;;;16.02
48003;BMP280;33768;48.578;11.574;2023-06-10T05:23:37;96208.72;;;16.40
48003;BMP280;33768;48.578;11.574;2023-06-10T05:26:41;96208.78;;;16.92
48003;BMP280;33768;48.578;11.574;2023-06-10T05:29:45;96201.38;;;17.37
48003;BMP280;33768;48.578;11.574;2023-06-10T05:32:50;96207.41;;;17.62
48003;BMP280;33768;48.578;11.574;2023-06-10T05:35:55;96219.34;;;17.74
48003;BMP280;33768;48.578;11.574;2023-06-10T05:38:59;96213.88;;;17.92
48003;BMP280;33768;48.578;11.574;2023-06-10T05:42:06;96220.47;;;18.06
48003;BMP280;33768;48.578;11.574;2023-06-10T05:45:10;96219.63;;;18.22
48003;BMP280;33768;48.578;11.574;2023-06-10T05:48:15;96224.13;;;18.37
48003;BMP280;33768;48.578;11.574;2023-06-10T05:51:19;96214.72;;;18.40
48003;BMP280;33768;48.578;11.574;2023-06-10T05:54:23;96217.03;;;18.43
48003;BMP280;33768;48.578;11.574;2023-06-10T05:57:27;96216.72;;;18.48
48003;BMP280;33768;48.578;11.574;2023-06-10T06:00:32;96213.81;;;18.56
48003;BMP280;33768;48.578;11.574;2023-06-10T06:03:36;96208.72;;;18.62
48003;BMP280;33768;48.578;11.574;2023-06-10T06:06:41;96215.88;;;18.65
48003;BMP280;33768;48.578;11.574;2023-06-10T06:09:45;96212.22;;;18.62
48003;BMP280;33768;48.578;11.574;2023-06-10T06:12:49;96215.56;;;18.61
48003;BMP280;33768;48.578;11.574;2023-06-10T06:15:53;96205.84;;;18.60
48003;BMP280;33768;48.578;11.574;2023-06-10T06:18:57;96214.69;;;18.68
48003;BMP280;33768;48.578;11.574;2023-06-10T06:22:01;96213.66;;;18.82
48003;BMP280;33768;48.578;11.574;2023-06-10T06:25:06;96207.25;;;18.98
48003;BMP280;33768;48.578;11.574;2023-06-10T06:28:10;96218.00;;;19.13
48003;BMP280;33768;48.578;11.574;2023-06-10T06:31:15;96209.38;;;19.18
48003;BMP280;33768;48.578;11.574;2023-06-10T06:34:19;96210.97;;;19.21
48003;BMP280;33768;48.578;11.574;2023-06-10T06:37:24;96202.97;;;19.25
48003;BMP280;33768;48.578;11.574;2023-06-10T06:40:35;96203.09;;;19.27
48003;BMP280;33768;48.578;11.574;2023-06-10T06:43:39;96199.03;;;19.28
48003;BMP280;33768;48.578;11.574;2023-06-10T06:47:03;96205.09;;;19.36
48003;BMP280;33768;48.578;11.574;2023-06-10T06:50:08;96205.50;;;19.42
48003;BMP280;33768;48.578;11.574;2023-06-10T06:53:12;96205.03;;;19.55
48003;BMP280;33768;48.578;11.574;2023-06-10T06:56:16;96202.94;;;19.65
48003;BMP280;33768;48.578;11.574;2023-06-10T06:59:21;96200.38;;;19.87
48003;BMP280;33768;48.578;11.574;2023-06-10T07:02:25;96214.50;;;20.12
48003;BMP280;33768;48.578;11.574;2023-06-10T07:05:29;96213.94;;;20.34
48003;BMP280;33768;48.578;11.574;2023-06-10T07:08:34;96207.47;;;20.62
48003;BMP280;33768;48.578;11.574;2023-06-10T07:11:39;96203.09;;;20.91
48003;BMP280;33768;48.578;11.574;2023-06-10T07:14:43;96215.69;;;21.03
48003;BMP280;33768;48.578;11.574;2023-06-10T07:17:46;96207.34;;;21.46
48003;BMP280;33768;48.578;11.574;2023-06-10T07:20:51;96204.19;;;21.97
48003;BMP280;33768;48.578;11.574;2023-06-10T07:23:56;96201.47;;;22.44
48003;BMP280;33768;48.578;11.574;2023-06-10T07:27:00;96204.97;;;22.92
48003;BMP280;33768;48.578;11.574;2023-06-10T07:30:05;96205.13;;;23.45
48003;BMP280;33768;48.578;11.574;2023-06-10T07:33:11;96200.97;;;24.11
48003;BMP280;33768;48.578;11.574;2023-06-10T07:36:15;96213.25;;;24.59
48003;BMP280;33768;48.578;11.574;2023-06-10T07:39:19;96209.88;;;25.17
48003;BMP280;33768;48.578;11.574;2023-06-10T07:42:24;96207.25;;;26.11
48003;BMP280;33768;48.578;11.574;2023-06-10T07:45:28;96190.97;;;26.88
48003;BMP280;33768;48.578;11.574;2023-06-10T07:48:32;96186.41;;;27.31
48003;BMP280;33768;48.578;11.574;2023-06-10T07:51:36;96196.81;;;26.44
48003;BMP280;33768;48.578;11.574;2023-06-10T07:54:40;96209.03;;;26.20
48003;BMP280;33768;48.578;11.574;2023-06-10T07:57:44;96198.69;;;25.92
48003;BMP280;33768;48.578;11.574;2023-06-10T08:00:48;96195.63;;;26.01
48003;BMP280;33768;48.578;11.574;2023-06-10T08:03:52;96196.69;;;26.25
48003;BMP280;33768;48.578;11.574;2023-06-10T08:06:57;96197.88;;;25.89
48003;BMP280;33768;48.578;11.574;2023-06-10T08:10:02;96197.53;;;25.66
48003;BMP280;33768;48.578;11.574;2023-06-10T08:13:07;96190.81;;;25.43
48003;BMP280;33768;48.578;11.574;2023-06-10T08:16:12;96198.97;;;25.08
48003;BMP280;33768;48.578;11.574;2023-06-10T08:19:16;96202.81;;;25.01
48003;BMP280;33768;48.578;11.574;2023-06-10T08:22:20;96194.25;;;24.97
48003;BMP280;33768;48.578;11.574;2023-06-10T08:25:24;96208.13;;;24.95
48003;BMP280;33768;48.578;11.574;2023-06-10T08:28:28;96201.13;;;24.68
48003;BMP280;33768;48.578;11.574;2023-06-10T08:31:32;96200.28;;;26.27
48003;BMP280;33768;48.578;11.574;2023-06-10T08:34:37;96194.09;;;27.13
48003;BMP280;33768;48.578;11.574;2023-06-10T08:37:41;96197.72;;;26.66
48003;BMP280;33768;48.578;11.574;2023-06-10T08:40:45;96192.91;;;25.88
48003;BMP280;33768;48.578;11.574;2023-06-10T08:44:08;96198.75;;;25.33
48003;BMP280;33768;48.578;11.574;2023-06-10T08:47:14;96198.91;;;24.80
48003;BMP280;33768;48.578;11.574;2023-06-10T08:50:19;96188.59;;;24.40
48003;BMP280;33768;48.578;11.574;2023-06-10T08:53:26;96201.50;;;24.47
48003;BMP280;33768;48.578;11.574;2023-06-10T08:56:32;96187.94;;;24.55
48003;BMP280;33768;48.578;11.574;2023-06-10T08:59:39;96183.59;;;24.65
48003;BMP280;33768;48.578;11.574;2023-06-10T09:02:45;96199.88;;;24.71
48003;BMP280;33768;48.578;11.574;2023-06-10T09:05:49;96195.19;;;26.72
48003;BMP280;33768;48.578;11.574;2023-06-10T09:08:54;96185.13;;;27.16
48003;BMP280;33768;48.578;11.574;2023-06-10T09:11:59;96177.69;;;27.23
48003;BMP280;33768;48.578;11.574;2023-06-10T09:15:04;96179.22;;;27.08
48003;BMP280;33768;48.578;11.574;2023-06-10T09:18:09;96167.69;;;28.69
48003;BMP280;33768;48.578;11.574;2023-06-10T09:21:13;96158.59;;;29.34
48003;BMP280;33768;48.578;11.574;2023-06-10T09:24:18;96160.06;;;28.72
48003;BMP280;33768;48.578;11.574;2023-06-10T09:27:22;96165.78;;;29.86
48003;BMP280;33768;48.578;11.574;2023-06-10T09:30:31;96160.16;;;30.88
48003;BMP280;33768;48.578;11.574;2023-06-10T09:33:39;96156.91;;;31.90
48003;BMP280;33768;48.578;11.574;2023-06-10T09:36:44;96153.00;;;32.81
48003;BMP280;33768;48.578;11.574;2023-06-10T09:40:04;96138.75;;;33.16
48003;BMP280;33768;48.578;11.574;2023-06-10T09:43:09;96152.28;;;32.42
48003;BMP280;33768;48.578;11.574;2023-06-10T09:46:18;96155.13;;;32.07
48003;BMP280;33768;48.578;11.574;2023-06-10T09:49:23;96156.34;;;30.51
48003;BMP280;33768;48.578;11.574;2023-06-10T09:52:28;96164.91;;;29.12
48003;BMP280;33768;48.578;11.574;2023-06-10T09:55:33;96177.41;;;28.07
48003;BMP280;33768;48.578;11.574;2023-06-10T09:58:39;96180.59;;;27.07
48003;BMP280;33768;48.578;11.574;2023-06-10T10:01:43;96182.63;;;25.92
48003;BMP280;33768;48.578;11.574;2023-06-10T10:04:47;96197.81;;;25.13
48003;BMP280;33768;48.578;11.574;2023-06-10T10:07:52;96192.31;;;24.86
48003;BMP280;33768;48.578;11.574;2023-06-10T10:10:56;96190.34;;;24.47
48003;BMP280;33768;48.578;11.574;2023-06-10T10:14:03;96189.84;;;24.11
48003;BMP280;33768;48.578;11.574;2023-06-10T10:17:10;96195.63;;;23.88
48003;BMP280;33768;48.578;11.574;2023-06-10T10:20:18;96206.75;;;23.61
48003;BMP280;33768;48.578;11.574;2023-06-10T10:23:32;96199.66;;;23.34
48003;BMP280;33768;48.578;11.574;2023-06-10T10:26:39;96207.75;;;23.17
48003;BMP280;33768;48.578;11.574;2023-06-10T10:29:46;96215.38;;;22.92
48003;BMP280;33768;48.578;11.574;2023-06-10T10:33:05;96210.56;;;22.81
48003;BMP280;33768;48.578;11.574;2023-06-10T10:36:10;96213.34;;;22.81
48003;BMP280;33768;48.578;11.574;2023-06-10T10:39:14;96217.31;;;22.89
48003;BMP280;33768;48.578;11.574;2023-06-10T10:42:19;96223.16;;;23.06
48003;BMP280;33768;48.578;11.574;2023-06-10T10:45:23;96216.47;;;23.11
48003;BMP280;33768;48.578;11.574;2023-06-10T10:48:35;96214.41;;;23.12
48003;BMP280;33768;48.578;11.574;2023-06-10T10:51:57;96213.78;;;23.13
48003;BMP280;33768;48.578;11.574;2023-06-10T10:55:01;96215.38;;;23.16
48003;BMP280;33768;48.578;11.574;2023-06-10T10:58:15;96214.75;;;23.18
48003;BMP280;33768;48.578;11.574;2023-06-10T11:01:20;96215.38;;;23.16
48003;BMP280;33768;48.578;11.574;2023-06-10T11:04:26;96213.50;;;23.21
48003;BMP280;33768;48.578;11.574;2023-06-10T11:07:31;96213.06;;;23.37
48003;BMP280;33768;48.578;11.574;2023-06-10T11:10:37;96215.44;;;23.43
48003;BMP280;33768;48.578;11.574;2023-06-10T11:14:06;96216.53;;;23.62
48003;BMP280;33768;48.578;11.574;2023-06-10T11:17:21;96201.81;;;24.00
48003;BMP280;33768;48.578;11.574;2023-06-10T11:23:57;96202.63;;;24.16
48003;BMP280;33768;48.578;11.574;2023-06-10T11:27:19;96217.00;;;23.97
48003;BMP280;33768;48.578;11.574;2023-06-10T11:30:25;96210.06;;;24.11
48003;BMP280;33768;48.578;11.574;2023-06-10T11:33:29;96208.63;;;24.37
48003;BMP280;33768;48.578;11.574;2023-06-10T11:36:38;96210.69;;;24.50
48003;BMP280;33768;48.578;11.574;2023-06-10T11:39:44;96206.66;;;24.39
48003;BMP280;33768;48.578;11.574;2023-06-10T11:42:48;96205.31;;;24.14
48003;BMP280;33768;48.578;11.574;2023-06-10T11:45:55;96195.72;;;24.17
48003;BMP280;33768;48.578;11.574;2023-06-10T11:49:00;96196.97;;;24.00
48003;BMP280;33768;48.578;11.574;2023-06-10T11:52:06;96215.13;;;23.88
48003;BMP280;33768;48.578;11.574;2023-06-10T11:55:10;96206.94;;;23.65
48003;BMP280;33768;48.578;11.574;2023-06-10T11:58:17;96209.41;;;23.59
48003;BMP280;33768;48.578;11.574;2023-06-10T12:01:22;96210.75;;;23.58
48003;BMP280;33768;48.578;11.574;2023-06-10T12:04:26;96202.72;;;23.64
48003;BMP280;33768;48.578;11.574;2023-06-10T12:07:30;96197.50;;;24.23
48003;BMP280;33768;48.578;11.574;2023-06-10T12:10:42;96193.59;;;26.34
48003;BMP280;33768;48.578;11.574;2023-06-10T12:13:47;96178.88;;;28.08
48003;BMP280;33768;48.578;11.574;2023-06-10T12:16:56;96171.56;;;28.80
48003;BMP280;33768;48.578;11.574;2023-06-10T12:20:00;96168.75;;;28.59
48003;BMP280;33768;48.578;11.574;2023-06-10T12:23:09;96173.53;;;27.77
48003;BMP280;33768;48.578;11.574;2023-06-10T12:26:14;96173.47;;;27.22
48003;BMP280;33768;48.578;11.574;2023-06-10T12:29:20;96175.16;;;26.94
48003;BMP280;33768;48.578;11.574;2023-06-10T12:32:43;96171.22;;;27.01
48003;BMP280;33768;48.578;11.574;2023-06-10T12:39:02;96171.78;;;26.48
48003;BMP280;33768;48.578;11.574;2023-06-10T12:42:06;96174.50;;;26.78
48003;BMP280;33768;48.578;11.574;2023-06-10T12:45:13;96160.66;;;27.17
48003;BMP280;33768;48.578;11.574;2023-06-10T12:48:19;96157.69;;;26.78
48003;BMP280;33768;48.578;11.574;2023-06-10T12:51:24;96167.13;;;26.70
48003;BMP280;33768;48.578;11.574;2023-06-10T12:54:29;96151.25;;;28.00
48003;BMP280;33768;48.578;11.574;2023-06-10T12:57:33;96144.59;;;28.92
48003;BMP280;33768;48.578;11.574;2023-06-10T13:00:37;96147.84;;;29.06
48003;BMP280;33768;48.578;11.574;2023-06-10T13:03:42;96145.03;;;29.98
48003;BMP280;33768;48.578;11.574;2023-06-10T13:06:47;96148.78;;;30.84
48003;BMP280;33768;48.578;11.574;2023-06-10T13:09:52;96129.66;;;31.39
48003;BMP280;33768;48.578;11.574;2023-06-10T13:12:56;96127.00;;;30.86
48003;BMP280;33768;48.578;11.574;2023-06-10T13:16:00;96123.16;;;31.32
48003;BMP280;33768;48.578;11.574;2023-06-10T13:19:05;96112.25;;;31.48
48003;BMP280;33768;48.578;11.574;2023-06-10T13:22:09;96114.53;;;31.88
48003;BMP280;33768;48.578;11.574;2023-06-10T13:25:14;96116.06;;;31.62
48003;BMP280;33768;48.578;11.574;2023-06-10T13:28:18;96120.19;;;31.88
48003;BMP280;33768;48.578;11.574;2023-06-10T13:31:21;96116.56;;;31.84
48003;BMP280;33768;48.578;11.574;2023-06-10T13:34:26;96111.69;;;30.93
48003;BMP280;33768;48.578;11.574;2023-06-10T13:37:30;96116.31;;;30.27
48003;BMP280;33768;48.578;11.574;2023-06-10T13:40:34;96114.00;;;30.47
48003;BMP280;33768;48.578;11.574;2023-06-10T13:43:38;96107.25;;;30.30
48003;BMP280;33768;48.578;11.574;2023-06-10T13:46:42;96100.63;;;31.32
48003;BMP280;33768;48.578;11.574;2023-06-10T13:49:46;96094.91;;;31.94
48003;BMP280;33768;48.578;11.574;2023-06-10T13:52:50;96091.94;;;32.25
48003;BMP280;33768;48.578;11.574;2023-06-10T13:55:55;96088.44;;;32.64
48003;BMP280;33768;48.578;11.574;2023-06-10T13:58:59;96087.09;;;32.28
48003;BMP280;33768;48.578;11.574;2023-06-10T14:02:03;96101.47;;;31.72
48003;BMP280;33768;48.578;11.574;2023-06-10T14:05:08;96093.25;;;30.88
48003;BMP280;33768;48.578;11.574;2023-06-10T14:08:12;96093.31;;;29.84
48003;BMP280;33768;48.578;11.574;2023-06-10T14:11:17;96098.53;;;28.80
48003;BMP280;33768;48.578;11.574;2023-06-10T14:14:20;96116.09;;;27.98
48003;BMP280;33768;48.578;11.574;2023-06-10T14:17:26;96140.31;;;26.65
48003;BMP280;33768;48.578;11.574;2023-06-10T14:20:30;96134.09;;;26.01
48003;BMP280;33768;48.578;11.574;2023-06-10T14:23:35;96129.34;;;25.12
48003;BMP280;33768;48.578;11.574;2023-06-10T14:26:39;96141.00;;;24.10
48003;BMP280;33768;48.578;11.574;2023-06-10T14:29:43;96139.16;;;23.87
48003;BMP280;33768;48.578;11.574;2023-06-10T14:32:47;96137.13;;;23.61
48003;BMP280;33768;48.578;11.574;2023-06-10T14:35:51;96152.41;;;23.36
48003;BMP280;33768;48.578;11.574;2023-06-10T14:38:56;96155.25;;;23.11
48003;BMP280;33768;48.578;11.574;2023-06-10T14:42:01;96148.91;;;22.97
48003;BMP280;33768;48.578;11.574;2023-06-10T14:45:06;96141.75;;;23.06
48003;BMP280;33768;48.578;11.574;2023-06-10T14:48:11;96148.22;;;23.10
48003;BMP280;33768;48.578;11.574;2023-06-10T14:51:15;96135.75;;;24.02
48003;BMP280;33768;48.578;11.574;2023-06-10T14:54:19;96142.44;;;24.94
48003;BMP280;33768;48.578;11.574;2023-06-10T14:57:23;96131.28;;;25.69
48003;BMP280;33768;48.578;11.574;2023-06-10T15:00:27;96127.34;;;26.39
48003;BMP280;33768;48.578;11.574;2023-06-10T15:03:31;96125.66;;;26.81
48003;BMP280;33768;48.578;11.574;2023-06-10T15:06:36;96126.91;;;27.49
48003;BMP280;33768;48.578;11.574;2023-06-10T15:09:40;96122.91;;;28.12
48003;BMP280;33768;48.578;11.574;2023-06-10T15:12:44;96117.50;;;28.58
48003;BMP280;33768;48.578;11.574;2023-06-10T15:15:48;96118.75;;;28.53
48003;BMP280;33768;48.578;11.574;2023-06-10T15:18:52;96135.63;;;28.15
48003;BMP280;33768;48.578;11.574;2023-06-10T15:21:56;96126.56;;;27.78
48003;BMP280;33768;48.578;11.574;2023-06-10T15:25:00;96136.19;;;26.83
48003;BMP280;33768;48.578;11.574;2023-06-10T15:28:05;96142.06;;;25.30
48003;BMP280;33768;48.578;11.574;2023-06-10T15:31:09;96141.22;;;24.27
48003;BMP280;33768;48.578;11.574;2023-06-10T15:34:13;96138.84;;;23.68
48003;BMP280;33768;48.578;11.574;2023-06-10T15:37:17;96155.69;;;23.32
48003;BMP280;33768;48.578;11.574;2023-06-10T15:40:21;96149.69;;;22.87
48003;BMP280;33768;48.578;11.574;2023-06-10T15:43:26;96160.47;;;22.56
48003;BMP280;33768;48.578;11.574;2023-06-10T15:46:30;96157.25;;;22.37
48003;BMP280;33768;48.578;11.574;2023-06-10T15:49:34;96169.16;;;22.26
48003;BMP280;33768;48.578;11.574;2023-06-10T15:52:39;96158.16;;;22.17
48003;BMP280;33768;48.578;11.574;2023-06-10T15:55:43;96160.72;;;22.13
48003;BMP280;33768;48.578;11.574;2023-06-10T15:58:47;96160.25;;;22.05
48003;BMP280;33768;48.578;11.574;2023-06-10T16:01:51;96163.28;;;21.97
48003;BMP280;33768;48.578;11.574;2023-06-10T16:04:55;96153.25;;;21.93
48003;BMP280;33768;48.578;11.574;2023-06-10T16:08:00;96159.28;;;21.89
48003;BMP280;33768;48.578;11.574;2023-06-10T16:11:04;96161.34;;;21.66
48003;BMP280;33768;48.578;11.574;2023-06-10T16:14:08;96165.47;;;21.42
48003;BMP280;33768;48.578;11.574;2023-06-10T16:17:12;96163.25;;;21.30
48003;BMP280;33768;48.578;11.574;2023-06-10T16:20:16;96176.97;;;21.16
48003;BMP280;33768;48.578;11.574;2023-06-10T16:23:20;96177.59;;;21.26
48003;BMP280;33768;48.578;11.574;2023-06-10T16:26:24;96173.03;;;21.31
48003;BMP280;33768;48.578;11.574;2023-06-10T16:29:28;96182.78;;;21.32
48003;BMP280;33768;48.578;11.574;2023-06-10T16:32:32;96179.22;;;21.52
48003;BMP280;33768;48.578;11.574;2023-06-10T16:35:36;96175.81;;;21.87
48003;BMP280;33768;48.578;11.574;2023-06-10T16:38:41;96184.88;;;22.22
48003;BMP280;33768;48.578;11.574;2023-06-10T16:41:45;96186.09;;;22.55
48003;BMP280;33768;48.578;11.574;2023-06-10T16:44:49;96189.28;;;22.74
48003;BMP280;33768;48.578;11.574;2023-06-10T16:47:54;96190.84;;;22.77
48003;BMP280;33768;48.578;11.574;2023-06-10T16:50:58;96197.66;;;22.62
48003;BMP280;33768;48.578;11.574;2023-06-10T16:54:02;96200.56;;;22.28
48003;BMP280;33768;48.578;11.574;2023-06-10T16:57:05;96196.47;;;21.96
48003;BMP280;33768;48.578;11.574;2023-06-10T17:00:10;96217.38;;;21.74
48003;BMP280;33768;48.578;11.574;2023-06-10T17:03:15;96221.00;;;21.54
48003;BMP280;33768;48.578;11.574;2023-06-10T17:06:19;96216.66;;;21.51
48003;BMP280;33768;48.578;11.574;2023-06-10T17:09:23;96224.50;;;21.43
48003;BMP280;33768;48.578;11.574;2023-06-10T17:12:27;96224.84;;;21.37
48003;BMP280;33768;48.578;11.574;2023-06-10T17:15:31;96218.16;;;21.20
48003;BMP280;33768;48.578;11.574;2023-06-10T17:18:35;96224.28;;;21.07
48003;BMP280;33768;48.578;11.574;2023-06-10T17:21:40;96228.47;;;20.97
48003;BMP280;33768;48.578;11.574;2023-06-10T17:24:44;96227.72;;;20.96
48003;BMP280;33768;48.578;11.574;2023-06-10T17:27:48;96223.63;;;20.97
48003;BMP280;33768;48.578;11.574;2023-06-10T17:30:53;96218.81;;;21.09
48003;BMP280;33768;48.578;11.574;2023-06-10T17:33:57;96221.50;;;21.07
48003;BMP280;33768;48.578;11.574;2023-06-10T17:37:02;96223.56;;;21.18
48003;BMP280;33768;48.578;11.574;2023-06-10T17:40:07;96221.88;;;21.24